sensor_id;sensor_type;location;lat;lon;timestamp;pressure;altitude;pressure_sealevel;temperature;humidity
30343;BME280;17145;49.902;8.680;'2024-01-25 00:58:05';101220;;;9;48
30343;BME280;17145;49.902;8.680;'2024-01-25 01:00:32';101210;;;8;48
30343;BME280;17145;49.902;8.680;'2024-01-25 01:02:59';101220;;;9;48
30343;BME280;17145;49.902;8.680;'2024-01-25 01:05:27';101220;;;8;48
30343;BME280;17145;49.902;8.680;'2024-01-25 01:07:54';101220;;;9;47
30343;BME280;17145;49.902;8.680;'2024-01-25 01:10:21';101220;;;8;47
30343;BME280;17145;49.902;8.680;'2024-01-25 01:12:49';101220;;;8;47
30343;BME280;17145;49.902;8.680;'2024-01-25 01:15:16';101220;;;8;48
30343;BME280;17145;49.902;8.680;'2024-01-25 01:17:43';101210;;;8;48
30343;BME280;17145;49.902;8.680;'2024-01-25 01:20:11';101200;;;9;48
30343;BME280;17145;49.902;8.680;'2024-01-25 01:22:38';101200;;;8;49
30343;BME280;17145;49.902;8.680;'2024-01-25 01:25:07';101200;;;8;48
30343;BME280;17145;49.902;8.680;'2024-01-25 01:27:34';101200;;;8;48
30343;BME280;17145;49.902;8.680;'2024-01-25 01:30:04';101210;;;8;48
30343;BME280;17145;49.902;8.680;'2024-01-25 01:32:32';101210;;;8;48
30343;BME280;17145;49.902;8.680;'2024-01-25 01:35:00';101210;;;8;48
30343;BME280;17145;49.902;8.680;'2024-01-25 01:37:27';101210;;;8;47
30343;BME280;17145;49.902;8.680;'2024-01-25 01:39:55';101220;;;9;47
30343;BME280;17145;49.902;8.680;'2024-01-25 01:42:24';101220;;;9;47
30343;BME280;17145;49.902;8.680;'2024-01-25 01:44:52';101220;;;8;48
30343;BME280;17145;49.902;8.680;'2024-01-25 01:47:20';101220;;;8;48
30343;BME280;17145;49.902;8.680;'2024-01-25 01:49:48';101220;;;8;47
30343;BME280;17145;49.902;8.680;'2024-01-25 01:52:16';101220;;;8;47
30343;BME280;17145;49.902;8.680;'2024-01-25 01:54:44';101220;;;8;47
30343;BME280;17145;49.902;8.680;'2024-01-25 01:57:12';101220;;;8;47
30343;BME280;17145;49.902;8.680;'2024-01-25 01:59:40';101220;;;8;47
30343;BME280;17145;49.902;8.680;'2024-01-25 02:02:11';101210;;;8;47
30343;BME280;17145;49.902;8.680;'2024-01-25 02:04:39';101210;;;8;47
30343;BME280;17145;49.902;8.680;'2024-01-25 02:07:09';101210;;;8;48
30343;BME280;17145;49.902;8.680;'2024-01-25 02:09:36';101210;;;8;48
30343;BME280;17145;49.902;8.680;'2024-01-25 02:12:04';101210;;;8;47
30343;BME280;17145;49.902;8.680;'2024-01-25 02:14:32';101210;;;8;47
30343;BME280;17145;49.902;8.680;'2024-01-25 02:16:59';101210;;;8;47
30343;BME280;17145;49.902;8.680;'2024-01-25 02:19:29';101210;;;8;47
30343;BME280;17145;49.902;8.680;'2024-01-25 02:21:56';101210;;;8;47
30343;BME280;17145;49.902;8.680;'2024-01-25 02:24:23';101220;;;8;47
30343;BME280;17145;49.902;8.680;'2024-01-25 02:26:51';101210;;;9;47
30343;BME280;17145;49.902;8.680;'2024-01-25 02:29:18';101220;;;9;46
30343;BME280;17145;49.902;8.680;'2024-01-25 02:31:47';101220;;;8;46
30343;BME280;17145;49.902;8.680;'2024-01-25 02:34:15';101210;;;8;47
30343;BME280;17145;49.902;8.680;'2024-01-25 02:36:42';101220;;;8;47
30343;BME280;17145;49.902;8.680;'2024-01-25 02:39:09';101220;;;8;47
30343;BME280;17145;49.902;8.680;'2024-01-25 02:41:37';101220;;;9;47
30343;BME280;17145;49.902;8.680;'2024-01-25 02:44:04';101220;;;8;47
30343;BME280;17145;49.902;8.680;'2024-01-25 02:46:34';101220;;;8;47
30343;BME280;17145;49.902;8.680;'2024-01-25 02:49:02';101220;;;8;47
30343;BME280;17145;49.902;8.680;'2024-01-25 02:51:31';101220;;;8;47
30343;BME280;17145;49.902;8.680;'2024-01-25 02:54:00';101220;;;8;47
30343;BME280;17145;49.902;8.680;'2024-01-25 02:56:28';101220;;;8;47
30343;BME280;17145;49.902;8.680;'2024-01-25 02:58:57';101220;;;8;47
30343;BME280;17145;49.902;8.680;'2024-01-25 03:01:26';101220;;;9;47
30343;BME280;17145;49.902;8.680;'2024-01-25 03:03:53';101220;;;8;47
30343;BME280;17145;49.902;8.680;'2024-01-25 03:06:22';101210;;;8;47
30343;BME280;17145;49.902;8.680;'2024-01-25 03:08:49';101220;;;8;47
30343;BME280;17145;49.902;8.680;'2024-01-25 03:11:17';101210;;;8;48
30343;BME280;17145;49.902;8.680;'2024-01-25 03:13:45';101210;;;8;47
30343;BME280;17145;49.902;8.680;'2024-01-25 03:16:12';101210;;;8;48
30343;BME280;17145;49.902;8.680;'2024-01-25 03:18:40';101210;;;8;48
30343;BME280;17145;49.902;8.680;'2024-01-25 03:21:08';101210;;;8;48
30343;BME280;17145;49.902;8.680;'2024-01-25 03:23:35';101220;;;8;48
30343;BME280;17145;49.902;8.680;'2024-01-25 03:26:03';101220;;;8;49
30343;BME280;17145;49.902;8.680;'2024-01-25 03:28:30';101210;;;8;49
30343;BME280;17145;49.902;8.680;'2024-01-25 03:30:59';101210;;;8;48
30343;BME280;17145;49.902;8.680;'2024-01-25 03:33:28';101220;;;8;49
30343;BME280;17145;49.902;8.680;'2024-01-25 03:35:56';101220;;;8;49
30343;BME280;17145;49.902;8.680;'2024-01-25 03:38:23';101210;;;8;49
30343;BME280;17145;49.902;8.680;'2024-01-25 03:40:51';101210;;;8;49
30343;BME280;17145;49.902;8.680;'2024-01-25 03:43:18';101210;;;7;50
30343;BME280;17145;49.902;8.680;'2024-01-25 03:45:46';101210;;;8;50
30343;BME280;17145;49.902;8.680;'2024-01-25 03:48:13';101210;;;7;50
30343;BME280;17145;49.902;8.680;'2024-01-25 03:50:40';101220;;;7;50
30343;BME280;17145;49.902;8.680;'2024-01-25 03:53:08';101220;;;7;51
30343;BME280;17145;49.902;8.680;'2024-01-25 03:55:35';101210;;;8;50
30343;BME280;17145;49.902;8.680;'2024-01-25 03:58:03';101220;;;7;50
30343;BME280;17145;49.902;8.680;'2024-01-25 04:00:30';101230;;;7;50
30343;BME280;17145;49.902;8.680;'2024-01-25 04:02:58';101230;;;7;50
30343;BME280;17145;49.902;8.680;'2024-01-25 04:05:25';101230;;;7;50
30343;BME280;17145;49.902;8.680;'2024-01-25 04:07:53';101220;;;7;50
30343;BME280;17145;49.902;8.680;'2024-01-25 04:10:20';101230;;;7;51
30343;BME280;17145;49.902;8.680;'2024-01-25 04:12:47';101230;;;7;51
30343;BME280;17145;49.902;8.680;'2024-01-25 04:15:15';101240;;;7;51
30343;BME280;17145;49.902;8.680;'2024-01-25 04:17:42';101240;;;7;50
30343;BME280;17145;49.902;8.680;'2024-01-25 04:20:10';101240;;;7;50
30343;BME280;17145;49.902;8.680;'2024-01-25 04:22:38';101240;;;7;50
30343;BME280;17145;49.902;8.680;'2024-01-25 04:25:05';101260;;;8;50
30343;BME280;17145;49.902;8.680;'2024-01-25 04:27:33';101260;;;7;49
30343;BME280;17145;49.902;8.680;'2024-01-25 04:30:00';101250;;;7;50
30343;BME280;17145;49.902;8.680;'2024-01-25 04:32:27';101260;;;7;50
30343;BME280;17145;49.902;8.680;'2024-01-25 04:34:55';101250;;;7;50
30343;BME280;17145;49.902;8.680;'2024-01-25 04:37:22';101250;;;8;49
30343;BME280;17145;49.902;8.680;'2024-01-25 04:39:50';101250;;;8;49
30343;BME280;17145;49.902;8.680;'2024-01-25 04:42:17';101260;;;7;50
30343;BME280;17145;49.902;8.680;'2024-01-25 04:44:44';101260;;;7;50
30343;BME280;17145;49.902;8.680;'2024-01-25 04:47:14';101270;;;7;50
30343;BME280;17145;49.902;8.680;'2024-01-25 04:49:41';101260;;;7;50
30343;BME280;17145;49.902;8.680;'2024-01-25 04:52:09';101270;;;7;50
30343;BME280;17145;49.902;8.680;'2024-01-25 04:54:36';101280;;;7;50
30343;BME280;17145;49.902;8.680;'2024-01-25 04:57:04';101280;;;7;50
30343;BME280;17145;49.902;8.680;'2024-01-25 04:59:31';101280;;;7;50
30343;BME280;17145;49.902;8.680;'2024-01-25 05:01:59';101290;;;7;50
30343;BME280;17145;49.902;8.680;'2024-01-25 05:04:26';101290;;;7;50
30343;BME280;17145;49.902;8.680;'2024-01-25 05:06:53';101300;;;7;50
30343;BME280;17145;49.902;8.680;'2024-01-25 05:09:21';101290;;;7;50
30343;BME280;17145;49.902;8.680;'2024-01-25 05:11:48';101290;;;7;51
30343;BME280;17145;49.902;8.680;'2024-01-25 05:14:16';101290;;;7;50
30343;BME280;17145;49.902;8.680;'2024-01-25 05:16:43';101290;;;8;50
30343;BME280;17145;49.902;8.680;'2024-01-25 05:19:11';101290;;;7;49
30343;BME280;17145;49.902;8.680;'2024-01-25 05:21:38';101290;;;8;49
30343;BME280;17145;49.902;8.680;'2024-01-25 05:24:06';101300;;;8;49
30343;BME280;17145;49.902;8.680;'2024-01-25 05:26:33';101290;;;8;49
30343;BME280;17145;49.902;8.680;'2024-01-25 05:29:01';101300;;;8;49
30343;BME280;17145;49.902;8.680;'2024-01-25 05:31:28';101290;;;7;49
30343;BME280;17145;49.902;8.680;'2024-01-25 05:33:55';101290;;;8;49
30343;BME280;17145;49.902;8.680;'2024-01-25 05:36:23';101290;;;8;49
30343;BME280;17145;49.902;8.680;'2024-01-25 05:38:50';101300;;;8;49
30343;BME280;17145;49.902;8.680;'2024-01-25 05:41:18';101300;;;8;49
30343;BME280;17145;49.902;8.680;'2024-01-25 05:43:45';101310;;;8;49
30343;BME280;17145;49.902;8.680;'2024-01-25 05:46:12';101310;;;8;49
30343;BME280;17145;49.902;8.680;'2024-01-25 05:48:40';101310;;;8;49
30343;BME280;17145;49.902;8.680;'2024-01-25 05:51:07';101320;;;7;49
30343;BME280;17145;49.902;8.680;'2024-01-25 05:53:36';101330;;;7;49
30343;BME280;17145;49.902;8.680;'2024-01-25 05:56:04';101330;;;8;49
30343;BME280;17145;49.902;8.680;'2024-01-25 05:58:31';101330;;;7;49
30343;BME280;17145;49.902;8.680;'2024-01-25 06:00:58';101330;;;7;49
30343;BME280;17145;49.902;8.680;'2024-01-25 06:03:26';101330;;;7;49
30343;BME280;17145;49.902;8.680;'2024-01-25 06:05:53';101330;;;7;50
30343;BME280;17145;49.902;8.680;'2024-01-25 06:08:20';101330;;;7;50
30343;BME280;17145;49.902;8.680;'2024-01-25 06:10:48';101330;;;7;51
30343;BME280;17145;49.902;8.680;'2024-01-25 06:13:15';101330;;;7;51
30343;BME280;17145;49.902;8.680;'2024-01-25 06:15:43';101330;;;7;51
30343;BME280;17145;49.902;8.680;'2024-01-25 06:18:11';101330;;;7;51
30343;BME280;17145;49.902;8.680;'2024-01-25 06:20:39';101340;;;7;51
30343;BME280;17145;49.902;8.680;'2024-01-25 06:23:06';101350;;;7;51
30343;BME280;17145;49.902;8.680;'2024-01-25 06:25:34';101350;;;7;50
30343;BME280;17145;49.902;8.680;'2024-01-25 06:28:01';101350;;;7;50
30343;BME280;17145;49.902;8.680;'2024-01-25 06:30:30';101350;;;7;50
30343;BME280;17145;49.902;8.680;'2024-01-25 06:32:57';101350;;;7;50
30343;BME280;17145;49.902;8.680;'2024-01-25 06:35:24';101360;;;7;50
30343;BME280;17145;49.902;8.680;'2024-01-25 06:37:52';101360;;;7;49
30343;BME280;17145;49.902;8.680;'2024-01-25 06:40:19';101360;;;8;49
30343;BME280;17145;49.902;8.680;'2024-01-25 06:42:48';101360;;;7;49
30343;BME280;17145;49.902;8.680;'2024-01-25 06:45:15';101360;;;7;49
30343;BME280;17145;49.902;8.680;'2024-01-25 06:47:42';101370;;;7;49
30343;BME280;17145;49.902;8.680;'2024-01-25 06:50:11';101370;;;7;49
30343;BME280;17145;49.902;8.680;'2024-01-25 06:52:39';101360;;;7;49
30343;BME280;17145;49.902;8.680;'2024-01-25 06:55:07';101360;;;7;50
30343;BME280;17145;49.902;8.680;'2024-01-25 06:57:36';101360;;;7;50
30343;BME280;17145;49.902;8.680;'2024-01-25 07:00:04';101360;;;7;50
30343;BME280;17145;49.902;8.680;'2024-01-25 07:02:31';101360;;;7;51
30343;BME280;17145;49.902;8.680;'2024-01-25 07:04:59';101360;;;7;51
30343;BME280;17145;49.902;8.680;'2024-01-25 07:07:27';101360;;;7;51
30343;BME280;17145;49.902;8.680;'2024-01-25 07:09:54';101360;;;7;51
30343;BME280;17145;49.902;8.680;'2024-01-25 07:12:22';101360;;;7;51
30343;BME280;17145;49.902;8.680;'2024-01-25 07:14:49';101360;;;7;50
30343;BME280;17145;49.902;8.680;'2024-01-25 07:17:17';101370;;;7;51
30343;BME280;17145;49.902;8.680;'2024-01-25 07:19:44';101370;;;7;51
30343;BME280;17145;49.902;8.680;'2024-01-25 07:22:12';101370;;;7;51
30343;BME280;17145;49.902;8.680;'2024-01-25 07:24:40';101370;;;7;51
30343;BME280;17145;49.902;8.680;'2024-01-25 07:27:07';101370;;;7;50
30343;BME280;17145;49.902;8.680;'2024-01-25 07:29:35';101370;;;7;51
30343;BME280;17145;49.902;8.680;'2024-01-25 07:32:04';101370;;;7;51
30343;BME280;17145;49.902;8.680;'2024-01-25 07:34:32';101360;;;7;50
30343;BME280;17145;49.902;8.680;'2024-01-25 07:36:59';101360;;;7;50
30343;BME280;17145;49.902;8.680;'2024-01-25 07:39:26';101370;;;6;52
30343;BME280;17145;49.902;8.680;'2024-01-25 07:41:54';101360;;;6;52
30343;BME280;17145;49.902;8.680;'2024-01-25 07:44:21';101360;;;6;53
30343;BME280;17145;49.902;8.680;'2024-01-25 07:46:49';101360;;;6;53
30343;BME280;17145;49.902;8.680;'2024-01-25 07:49:16';101360;;;6;53
30343;BME280;17145;49.902;8.680;'2024-01-25 07:51:43';101360;;;6;53
30343;BME280;17145;49.902;8.680;'2024-01-25 07:54:11';101360;;;6;53
30343;BME280;17145;49.902;8.680;'2024-01-25 07:56:38';101360;;;6;53
30343;BME280;17145;49.902;8.680;'2024-01-25 07:59:05';101360;;;6;52
30343;BME280;17145;49.902;8.680;'2024-01-25 08:01:33';101370;;;6;52
30343;BME280;17145;49.902;8.680;'2024-01-25 08:04:00';101370;;;6;52
30343;BME280;17145;49.902;8.680;'2024-01-25 08:06:28';101380;;;6;53
30343;BME280;17145;49.902;8.680;'2024-01-25 08:08:55';101380;;;6;53
30343;BME280;17145;49.902;8.680;'2024-01-25 08:11:22';101390;;;6;52
30343;BME280;17145;49.902;8.680;'2024-01-25 08:13:50';101390;;;6;52
30343;BME280;17145;49.902;8.680;'2024-01-25 08:16:17';101400;;;7;52
30343;BME280;17145;49.902;8.680;'2024-01-25 08:18:45';101400;;;6;52
30343;BME280;17145;49.902;8.680;'2024-01-25 08:21:13';101400;;;6;52
30343;BME280;17145;49.902;8.680;'2024-01-25 08:23:40';101400;;;6;52
30343;BME280;17145;49.902;8.680;'2024-01-25 08:26:08';101400;;;6;53
30343;BME280;17145;49.902;8.680;'2024-01-25 08:28:35';101400;;;6;52
30343;BME280;17145;49.902;8.680;'2024-01-25 08:31:03';101400;;;6;52
30343;BME280;17145;49.902;8.680;'2024-01-25 08:33:30';101400;;;6;52
30343;BME280;17145;49.902;8.680;'2024-01-25 08:35:57';101400;;;6;52
30343;BME280;17145;49.902;8.680;'2024-01-25 08:38:25';101410;;;6;52
30343;BME280;17145;49.902;8.680;'2024-01-25 08:40:52';101410;;;6;52
30343;BME280;17145;49.902;8.680;'2024-01-25 08:43:20';101420;;;6;51
30343;BME280;17145;49.902;8.680;'2024-01-25 08:45:47';101430;;;6;51
30343;BME280;17145;49.902;8.680;'2024-01-25 08:48:15';101430;;;7;51
30343;BME280;17145;49.902;8.680;'2024-01-25 08:50:42';101430;;;7;51
30343;BME280;17145;49.902;8.680;'2024-01-25 08:53:10';101420;;;7;51
30343;BME280;17145;49.902;8.680;'2024-01-25 08:55:37';101430;;;7;51
30343;BME280;17145;49.902;8.680;'2024-01-25 08:58:05';101420;;;7;51
30343;BME280;17145;49.902;8.680;'2024-01-25 09:00:32';101430;;;7;51
30343;BME280;17145;49.902;8.680;'2024-01-25 09:03:00';101430;;;7;50
30343;BME280;17145;49.902;8.680;'2024-01-25 09:05:27';101440;;;7;50
30343;BME280;17145;49.902;8.680;'2024-01-25 09:07:54';101430;;;7;51
30343;BME280;17145;49.902;8.680;'2024-01-25 09:10:22';101420;;;7;51
30343;BME280;17145;49.902;8.680;'2024-01-25 09:12:49';101430;;;7;51
30343;BME280;17145;49.902;8.680;'2024-01-25 09:15:17';101430;;;7;51
30343;BME280;17145;49.902;8.680;'2024-01-25 09:17:44';101430;;;7;51
30343;BME280;17145;49.902;8.680;'2024-01-25 09:20:12';101420;;;7;51
30343;BME280;17145;49.902;8.680;'2024-01-25 09:22:40';101420;;;7;51
30343;BME280;17145;49.902;8.680;'2024-01-25 09:25:08';101420;;;7;51
30343;BME280;17145;49.902;8.680;'2024-01-25 09:27:35';101420;;;7;50
30343;BME280;17145;49.902;8.680;'2024-01-25 09:30:03';101420;;;7;50
30343;BME280;17145;49.902;8.680;'2024-01-25 09:32:31';101420;;;7;50
30343;BME280;17145;49.902;8.680;'2024-01-25 09:34:58';101420;;;7;50
30343;BME280;17145;49.902;8.680;'2024-01-25 09:37:26';101420;;;7;50
30343;BME280;17145;49.902;8.680;'2024-01-25 09:39:53';101420;;;7;50
30343;BME280;17145;49.902;8.680;'2024-01-25 09:42:21';101420;;;7;50
30343;BME280;17145;49.902;8.680;'2024-01-25 09:44:48';101430;;;7;50
30343;BME280;17145;49.902;8.680;'2024-01-25 09:47:17';101430;;;7;50
30343;BME280;17145;49.902;8.680;'2024-01-25 09:49:44';101440;;;7;50
30343;BME280;17145;49.902;8.680;'2024-01-25 09:52:11';101440;;;7;50
30343;BME280;17145;49.902;8.680;'2024-01-25 09:54:39';101450;;;8;50
30343;BME280;17145;49.902;8.680;'2024-01-25 09:57:06';101450;;;8;50
30343;BME280;17145;49.902;8.680;'2024-01-25 09:59:34';101450;;;7;49
30343;BME280;17145;49.902;8.680;'2024-01-25 10:02:02';101450;;;7;49
30343;BME280;17145;49.902;8.680;'2024-01-25 10:04:29';101450;;;7;50
30343;BME280;17145;49.902;8.680;'2024-01-25 10:06:56';101440;;;7;50
30343;BME280;17145;49.902;8.680;'2024-01-25 10:09:24';101450;;;7;51
30343;BME280;17145;49.902;8.680;'2024-01-25 10:11:51';101450;;;7;51
30343;BME280;17145;49.902;8.680;'2024-01-25 10:14:19';101450;;;7;51
30343;BME280;17145;49.902;8.680;'2024-01-25 10:16:46';101450;;;7;51
30343;BME280;17145;49.902;8.680;'2024-01-25 10:19:13';101440;;;7;51
30343;BME280;17145;49.902;8.680;'2024-01-25 10:21:40';101450;;;8;50
30343;BME280;17145;49.902;8.680;'2024-01-25 10:24:08';101450;;;8;50
30343;BME280;17145;49.902;8.680;'2024-01-25 10:26:35';101450;;;8;49
30343;BME280;17145;49.902;8.680;'2024-01-25 10:29:03';101450;;;8;49
30343;BME280;17145;49.902;8.680;'2024-01-25 10:31:30';101450;;;8;49
30343;BME280;17145;49.902;8.680;'2024-01-25 10:33:58';101450;;;8;49
30343;BME280;17145;49.902;8.680;'2024-01-25 10:36:25';101440;;;8;49
30343;BME280;17145;49.902;8.680;'2024-01-25 10:38:52';101450;;;8;49
30343;BME280;17145;49.902;8.680;'2024-01-25 10:41:20';101450;;;8;49
30343;BME280;17145;49.902;8.680;'2024-01-25 10:43:47';101450;;;8;49
30343;BME280;17145;49.902;8.680;'2024-01-25 10:46:16';101450;;;8;49
30343;BME280;17145;49.902;8.680;'2024-01-25 10:48:43';101460;;;8;49
30343;BME280;17145;49.902;8.680;'2024-01-25 10:51:11';101460;;;8;48
30343;BME280;17145;49.902;8.680;'2024-01-25 10:53:40';101460;;;9;48
30343;BME280;17145;49.902;8.680;'2024-01-25 10:56:09';101470;;;8;48
30343;BME280;17145;49.902;8.680;'2024-01-25 10:58:39';101470;;;8;48
30343;BME280;17145;49.902;8.680;'2024-01-25 11:01:09';101470;;;8;48
30343;BME280;17145;49.902;8.680;'2024-01-25 11:03:37';101480;;;9;48
30343;BME280;17145;49.902;8.680;'2024-01-25 11:06:05';101480;;;9;48
30343;BME280;17145;49.902;8.680;'2024-01-25 11:08:33';101470;;;9;47
30343;BME280;17145;49.902;8.680;'2024-01-25 11:11:00';101460;;;9;47
30343;BME280;17145;49.902;8.680;'2024-01-25 11:13:28';101460;;;9;47
30343;BME280;17145;49.902;8.680;'2024-01-25 11:15:55';101460;;;9;47
30343;BME280;17145;49.902;8.680;'2024-01-25 11:18:23';101470;;;9;47
30343;BME280;17145;49.902;8.680;'2024-01-25 11:20:50';101460;;;9;47
30343;BME280;17145;49.902;8.680;'2024-01-25 11:23:18';101460;;;9;47
30343;BME280;17145;49.902;8.680;'2024-01-25 11:25:45';101460;;;9;47
30343;BME280;17145;49.902;8.680;'2024-01-25 11:28:12';101460;;;9;47
30343;BME280;17145;49.902;8.680;'2024-01-25 11:30:40';101470;;;9;47
30343;BME280;17145;49.902;8.680;'2024-01-25 11:33:09';101460;;;9;47
30343;BME280;17145;49.902;8.680;'2024-01-25 11:35:38';101470;;;8;47
30343;BME280;17145;49.902;8.680;'2024-01-25 11:38:05';101460;;;9;47
30343;BME280;17145;49.902;8.680;'2024-01-25 11:40:33';101460;;;9;47
30343;BME280;17145;49.902;8.680;'2024-01-25 11:43:00';101460;;;9;47
30343;BME280;17145;49.902;8.680;'2024-01-25 11:45:27';101460;;;9;47
30343;BME280;17145;49.902;8.680;'2024-01-25 11:47:56';101470;;;9;47
30343;BME280;17145;49.902;8.680;'2024-01-25 11:50:23';101480;;;9;47
30343;BME280;17145;49.902;8.680;'2024-01-25 11:52:51';101480;;;9;46
30343;BME280;17145;49.902;8.680;'2024-01-25 11:55:19';101480;;;9;47
30343;BME280;17145;49.902;8.680;'2024-01-25 11:57:47';101480;;;9;47
30343;BME280;17145;49.902;8.680;'2024-01-25 12:00:15';101480;;;9;46
30343;BME280;17145;49.902;8.680;'2024-01-25 12:02:45';101470;;;9;46
30343;BME280;17145;49.902;8.680;'2024-01-25 12:05:13';101460;;;9;46
30343;BME280;17145;49.902;8.680;'2024-01-25 12:07:42';101460;;;10;46
30343;BME280;17145;49.902;8.680;'2024-01-25 12:10:14';101460;;;10;45
30343;BME280;17145;49.902;8.680;'2024-01-25 12:12:48';101450;;;10;45
30343;BME280;17145;49.902;8.680;'2024-01-25 12:15:20';101460;;;10;45
30343;BME280;17145;49.902;8.680;'2024-01-25 12:17:52';101460;;;10;45
30343;BME280;17145;49.902;8.680;'2024-01-25 12:20:22';101460;;;10;44
30343;BME280;17145;49.902;8.680;'2024-01-25 12:22:55';101460;;;10;44
30343;BME280;17145;49.902;8.680;'2024-01-25 12:25:23';101460;;;10;44
30343;BME280;17145;49.902;8.680;'2024-01-25 12:27:50';101460;;;10;43
30343;BME280;17145;49.902;8.680;'2024-01-25 12:30:18';101460;;;10;44
30343;BME280;17145;49.902;8.680;'2024-01-25 12:32:46';101460;;;10;43
30343;BME280;17145;49.902;8.680;'2024-01-25 12:35:14';101450;;;10;44
30343;BME280;17145;49.902;8.680;'2024-01-25 12:37:41';101440;;;10;44
30343;BME280;17145;49.902;8.680;'2024-01-25 12:40:10';101440;;;10;44
30343;BME280;17145;49.902;8.680;'2024-01-25 12:42:38';101430;;;10;43
30343;BME280;17145;49.902;8.680;'2024-01-25 12:45:07';101420;;;10;43
30343;BME280;17145;49.902;8.680;'2024-01-25 12:47:35';101420;;;10;43
30343;BME280;17145;49.902;8.680;'2024-01-25 12:50:03';101420;;;10;43
30343;BME280;17145;49.902;8.680;'2024-01-25 12:52:30';101420;;;10;43
30343;BME280;17145;49.902;8.680;'2024-01-25 12:54:58';101410;;;10;42
30343;BME280;17145;49.902;8.680;'2024-01-25 12:57:25';101410;;;10;43
30343;BME280;17145;49.902;8.680;'2024-01-25 12:59:53';101410;;;10;42
30343;BME280;17145;49.902;8.680;'2024-01-25 13:02:21';101400;;;10;42
30343;BME280;17145;49.902;8.680;'2024-01-25 13:04:50';101390;;;10;42
30343;BME280;17145;49.902;8.680;'2024-01-25 13:07:17';101390;;;10;42
30343;BME280;17145;49.902;8.680;'2024-01-25 13:09:44';101400;;;10;42
30343;BME280;17145;49.902;8.680;'2024-01-25 13:12:12';101400;;;10;41
30343;BME280;17145;49.902;8.680;'2024-01-25 13:14:40';101400;;;10;41
30343;BME280;17145;49.902;8.680;'2024-01-25 13:17:08';101390;;;11;41
30343;BME280;17145;49.902;8.680;'2024-01-25 13:19:36';101380;;;10;40
30343;BME280;17145;49.902;8.680;'2024-01-25 13:22:03';101370;;;10;39
30343;BME280;17145;49.902;8.680;'2024-01-25 13:24:31';101360;;;11;40
30343;BME280;17145;49.902;8.680;'2024-01-25 13:26:59';101360;;;10;40
30343;BME280;17145;49.902;8.680;'2024-01-25 13:29:26';101350;;;11;40
30343;BME280;17145;49.902;8.680;'2024-01-25 13:31:54';101350;;;11;40
30343;BME280;17145;49.902;8.680;'2024-01-25 13:34:21';101350;;;11;40
30343;BME280;17145;49.902;8.680;'2024-01-25 13:36:49';101350;;;11;41
30343;BME280;17145;49.902;8.680;'2024-01-25 13:39:16';101350;;;11;39
30343;BME280;17145;49.902;8.680;'2024-01-25 13:41:44';101350;;;11;38
30343;BME280;17145;49.902;8.680;'2024-01-25 13:44:11';101350;;;11;39
30343;BME280;17145;49.902;8.680;'2024-01-25 13:46:38';101350;;;11;39
30343;BME280;17145;49.902;8.680;'2024-01-25 13:49:17';101350;;;10;39
30343;BME280;17145;49.902;8.680;'2024-01-25 13:51:45';101350;;;11;39
30343;BME280;17145;49.902;8.680;'2024-01-25 13:54:12';101350;;;11;39
30343;BME280;17145;49.902;8.680;'2024-01-25 13:56:40';101340;;;11;38
30343;BME280;17145;49.902;8.680;'2024-01-25 13:59:07';101340;;;11;38
30343;BME280;17145;49.902;8.680;'2024-01-25 14:01:34';101340;;;10;38
30343;BME280;17145;49.902;8.680;'2024-01-25 14:04:02';101330;;;11;38
30343;BME280;17145;49.902;8.680;'2024-01-25 14:06:29';101320;;;11;39
30343;BME280;17145;49.902;8.680;'2024-01-25 14:08:56';101330;;;11;39
30343;BME280;17145;49.902;8.680;'2024-01-25 14:11:24';101330;;;11;38
30343;BME280;17145;49.902;8.680;'2024-01-25 14:13:51';101320;;;11;38
30343;BME280;17145;49.902;8.680;'2024-01-25 14:16:18';101320;;;11;39
30343;BME280;17145;49.902;8.680;'2024-01-25 14:18:46';101320;;;11;38
30343;BME280;17145;49.902;8.680;'2024-01-25 14:21:13';101320;;;11;38
30343;BME280;17145;49.902;8.680;'2024-01-25 14:23:41';101320;;;11;38
30343;BME280;17145;49.902;8.680;'2024-01-25 14:26:08';101320;;;11;39
30343;BME280;17145;49.902;8.680;'2024-01-25 14:28:37';101300;;;11;39
30343;BME280;17145;49.902;8.680;'2024-01-25 14:31:04';101290;;;10;39
30343;BME280;17145;49.902;8.680;'2024-01-25 14:33:31';101290;;;11;39
30343;BME280;17145;49.902;8.680;'2024-01-25 14:35:59';101300;;;11;40
30343;BME280;17145;49.902;8.680;'2024-01-25 14:38:26';101300;;;11;39
30343;BME280;17145;49.902;8.680;'2024-01-25 14:40:53';101290;;;11;39
30343;BME280;17145;49.902;8.680;'2024-01-25 14:43:21';101300;;;11;39
30343;BME280;17145;49.902;8.680;'2024-01-25 14:45:48';101300;;;11;39
30343;BME280;17145;49.902;8.680;'2024-01-25 14:48:15';101280;;;11;39
30343;BME280;17145;49.902;8.680;'2024-01-25 14:50:43';101280;;;10;39
30343;BME280;17145;49.902;8.680;'2024-01-25 14:53:10';101280;;;10;40
30343;BME280;17145;49.902;8.680;'2024-01-25 14:55:38';101280;;;10;40
30343;BME280;17145;49.902;8.680;'2024-01-25 14:58:05';101280;;;10;40
30343;BME280;17145;49.902;8.680;'2024-01-25 15:00:33';101280;;;10;40
30343;BME280;17145;49.902;8.680;'2024-01-25 15:03:00';101280;;;10;41
30343;BME280;17145;49.902;8.680;'2024-01-25 15:05:28';101280;;;11;40
30343;BME280;17145;49.902;8.680;'2024-01-25 15:07:55';101280;;;11;40
30343;BME280;17145;49.902;8.680;'2024-01-25 15:10:22';101280;;;10;40
30343;BME280;17145;49.902;8.680;'2024-01-25 15:12:50';101280;;;10;41
30343;BME280;17145;49.902;8.680;'2024-01-25 15:15:17';101290;;;11;40
30343;BME280;17145;49.902;8.680;'2024-01-25 15:17:45';101290;;;11;40